createdAt,value
2018-08-23T00:01:56.842Z,23.40
2018-08-23T00:04:26.460Z,24.37
2018-08-23T00:07:07.240Z,23.93
2018-08-23T00:09:49.557Z,23.30
2018-08-23T00:12:23.322Z,19.13
2018-08-23T00:14:52.958Z,23.20
2018-08-23T00:17:22.592Z,22.93
2018-08-23T00:19:52.221Z,24.23
2018-08-23T00:22:27.232Z,22.60
2018-08-23T00:25:13.514Z,23.67
2018-08-23T00:27:46.655Z,23.40
2018-08-23T00:30:24.404Z,25.87
2018-08-23T00:32:54.254Z,25.57
2018-08-23T00:35:23.887Z,26.40
2018-08-23T00:37:53.547Z,25.70
2018-08-23T00:40:23.218Z,25.97
2018-08-23T00:42:57.918Z,24.70
2018-08-23T00:45:35.731Z,23.70
2018-08-23T00:48:05.618Z,26.43
2018-08-23T00:51:05.846Z,26.63
2018-08-23T00:53:36.781Z,27.07
2018-08-23T00:56:20.482Z,26.27
2018-08-23T00:58:55.313Z,26.10
2018-08-23T01:01:24.983Z,27.87
2018-08-23T01:03:55.118Z,28.70
2018-08-23T01:06:34.692Z,27.60
2018-08-23T01:09:04.802Z,25.37
2018-08-23T01:11:58.286Z,26.60
2018-08-23T01:14:27.962Z,27.97
2018-08-23T01:17:14.814Z,27.40
2018-08-23T01:19:49.801Z,27.13
2018-08-23T01:25:24.049Z,27.90
2018-08-23T01:30:39.702Z,26.87
2018-08-23T01:33:13.052Z,27.70
2018-08-23T01:35:44.018Z,25.73
2018-08-23T01:38:28.906Z,28.93
2018-08-23T01:41:03.646Z,28.80
2018-08-23T01:43:33.326Z,28.40
2018-08-23T01:46:38.938Z,28.00
2018-08-23T01:49:08.622Z,29.80
2018-08-23T01:51:38.317Z,29.90
2018-08-23T01:54:07.982Z,32.90
2018-08-23T01:56:37.633Z,30.37
2018-08-23T01:59:07.323Z,31.20
2018-08-23T02:01:37.036Z,33.00
2018-08-23T02:04:24.990Z,32.23
2018-08-23T02:10:17.162Z,31.97
2018-08-23T02:13:13.350Z,27.30
2018-08-23T02:15:48.143Z,31.27
2018-08-23T02:18:17.755Z,35.30
2018-08-23T02:23:57.236Z,31.70
2018-08-23T02:30:03.396Z,33.90
2018-08-23T02:32:33.213Z,34.50
2018-08-23T02:35:05.983Z,31.90
2018-08-23T02:37:35.610Z,34.30
2018-08-23T02:40:05.325Z,33.57
2018-08-23T02:42:53.765Z,35.80
2018-08-23T02:45:23.624Z,36.70
2018-08-23T02:47:53.287Z,32.97
2018-08-23T02:50:26.365Z,35.93
2018-08-23T02:53:00.064Z,34.47
2018-08-23T02:55:29.809Z,33.50
2018-08-23T02:58:01.432Z,31.53
2018-08-23T03:00:36.353Z,32.23
2018-08-23T03:03:29.694Z,32.07
2018-08-23T03:05:59.343Z,30.53
2018-08-23T03:08:42.890Z,30.50
2018-08-23T03:11:29.470Z,31.20
2018-08-23T03:13:59.769Z,31.77
2018-08-23T03:16:46.128Z,31.87
2018-08-23T03:19:35.504Z,34.30
2018-08-23T03:22:05.744Z,41.33
2018-08-23T03:24:36.015Z,38.97
2018-08-23T03:27:06.225Z,39.73
2018-08-23T03:30:06.753Z,37.13
2018-08-23T03:32:36.925Z,41.93
2018-08-23T03:35:07.893Z,32.97
2018-08-23T03:37:38.002Z,36.83
2018-08-23T03:40:10.274Z,35.57
2018-08-23T03:42:40.486Z,35.10
2018-08-23T03:45:16.245Z,35.07
2018-08-23T03:47:53.503Z,35.83
2018-08-23T03:50:23.628Z,33.53
2018-08-23T03:53:06.965Z,32.87
2018-08-23T03:55:37.262Z,33.67
2018-08-23T03:58:07.330Z,33.17
2018-08-23T04:01:04.575Z,35.23
2018-08-23T04:03:39.891Z,37.83
2018-08-23T04:07:21.751Z,36.00
2018-08-23T04:09:51.775Z,36.13
2018-08-23T04:12:40.302Z,32.33
2018-08-23T04:15:35.509Z,34.77
2018-08-23T04:18:17.242Z,39.10
2018-08-23T04:20:55.268Z,38.20
2018-08-23T04:23:25.522Z,34.20
2018-08-23T04:25:55.672Z,32.67
2018-08-23T04:28:26.148Z,32.30
2018-08-23T04:30:56.241Z,33.10
2018-08-23T04:33:25.911Z,34.27
2018-08-23T04:35:56.117Z,32.07
2018-08-23T04:38:26.365Z,34.40
2018-08-23T04:41:02.232Z,31.87
2018-08-23T04:43:31.908Z,37.03
2018-08-23T04:46:06.090Z,32.80
2018-08-23T04:48:36.336Z,34.20
2018-08-23T04:51:06.406Z,36.23
2018-08-23T04:53:36.388Z,36.83
2018-08-23T04:56:06.226Z,39.50
2018-08-23T04:58:36.478Z,37.43
2018-08-23T05:01:06.138Z,35.80
2018-08-23T05:03:35.816Z,34.43
2018-08-23T05:06:08.778Z,38.80
2018-08-23T05:08:38.418Z,38.20
2018-08-23T05:11:08.067Z,37.97
2018-08-23T05:13:37.751Z,37.97
2018-08-23T05:16:07.519Z,34.80
2018-08-23T05:18:37.181Z,37.60
2018-08-23T05:21:07.039Z,39.17
2018-08-23T05:23:36.797Z,37.33
2018-08-23T05:26:11.623Z,39.33
2018-08-23T05:28:43.526Z,41.13
2018-08-23T05:34:18.649Z,36.60
2018-08-23T05:36:48.292Z,37.23
2018-08-23T05:39:20.239Z,37.57
2018-08-23T05:41:52.129Z,39.87
2018-08-23T05:44:58.709Z,40.70
2018-08-23T05:47:32.052Z,41.43
2018-08-23T05:50:01.730Z,43.43
2018-08-23T05:52:31.387Z,44.27
2018-08-23T05:55:01.029Z,46.90
2018-08-23T05:57:31.667Z,46.53
2018-08-23T06:00:11.674Z,46.80
2018-08-23T06:02:41.341Z,45.60
2018-08-23T06:05:37.653Z,46.70
2018-08-23T06:08:07.920Z,45.07
2018-08-23T06:10:37.597Z,46.83
2018-08-23T06:13:08.142Z,48.00
2018-08-23T06:15:42.886Z,48.37
2018-08-23T06:18:12.514Z,50.80
2018-08-23T06:20:41.117Z,42.63
2018-08-23T06:23:39.427Z,45.60
2018-08-23T06:26:09.361Z,48.80
2018-08-23T06:31:59.042Z,50.70
2018-08-23T06:34:36.271Z,48.90
2018-08-23T06:37:05.998Z,49.70
2018-08-23T06:39:35.664Z,48.97
2018-08-23T06:42:05.543Z,49.60
2018-08-23T06:44:42.401Z,51.03
2018-08-23T06:47:28.503Z,50.40
2018-08-23T06:49:59.236Z,48.37
2018-08-23T06:52:38.705Z,52.93
2018-08-23T06:55:13.783Z,52.80
2018-08-23T06:57:46.502Z,58.90
2018-08-23T07:00:21.441Z,55.03
2018-08-23T07:03:05.052Z,51.67
2018-08-23T07:05:55.557Z,54.97
2018-08-23T07:08:25.918Z,53.37
2018-08-23T07:16:34.705Z,58.37
2018-08-23T07:20:09.699Z,50.87
2018-08-23T07:23:17.660Z,51.23
2018-08-23T07:25:47.263Z,55.47
2018-08-23T07:28:16.876Z,58.37
2018-08-23T07:33:58.589Z,55.07
2018-08-23T07:36:30.049Z,57.50
2018-08-23T07:38:59.694Z,54.43
2018-08-23T07:41:57.740Z,52.70
2018-08-23T07:44:56.506Z,54.50
2018-08-23T07:47:55.491Z,53.13
2018-08-23T07:50:25.266Z,54.00
2018-08-23T08:06:48.724Z,45.07
2018-08-23T08:12:23.166Z,41.97
2018-08-23T08:14:53.843Z,42.00
2018-08-23T08:17:29.368Z,40.87
2018-08-23T08:19:59.250Z,38.33
2018-08-23T08:22:28.902Z,42.77
2018-08-23T08:25:21.606Z,39.10
2018-08-23T08:27:51.329Z,32.07
2018-08-23T08:30:57.270Z,33.47
2018-08-23T08:33:31.813Z,33.03
2018-08-23T08:36:02.934Z,33.10
2018-08-23T08:38:33.089Z,35.20
2018-08-23T08:41:02.748Z,31.77
2018-08-23T08:43:32.411Z,31.50
2018-08-23T08:46:02.094Z,27.43
2018-08-23T08:48:36.029Z,22.77
2018-08-23T08:51:21.217Z,20.37
2018-08-23T08:53:51.287Z,18.97
2018-08-23T08:57:19.037Z,18.73
2018-08-23T08:59:48.654Z,17.97
2018-08-23T09:02:18.447Z,19.10
2018-08-23T09:04:48.114Z,16.40
2018-08-23T09:07:28.906Z,17.13
2018-08-23T09:13:01.352Z,14.80
2018-08-23T09:15:30.979Z,15.50
2018-08-23T09:18:00.627Z,16.67
2018-08-23T09:20:30.327Z,15.60
2018-08-23T09:23:28.700Z,13.20
2018-08-23T09:25:58.851Z,19.23
2018-08-23T09:28:28.582Z,16.97
2018-08-23T09:30:58.269Z,10.77
2018-08-23T09:33:28.986Z,15.53
2018-08-23T09:38:59.721Z,12.63
2018-08-23T09:41:34.885Z,14.50
2018-08-23T09:44:27.389Z,10.73
2018-08-23T09:47:01.214Z,11.70
2018-08-23T09:52:32.529Z,12.87
2018-08-23T09:55:02.214Z,11.20
2018-08-23T09:57:31.881Z,11.93
2018-08-23T10:00:01.550Z,13.80
2018-08-23T10:02:42.031Z,13.80
2018-08-23T10:05:16.704Z,10.47
2018-08-23T10:07:58.167Z,12.33
2018-08-23T10:10:32.858Z,12.00
2018-08-23T10:13:13.656Z,14.67
2018-08-23T10:15:45.401Z,14.20
2018-08-23T10:21:59.730Z,17.23
2018-08-23T10:24:54.870Z,19.53
2018-08-23T10:27:50.657Z,15.13
2018-08-23T10:30:20.714Z,16.13
2018-08-23T10:32:50.999Z,15.10
2018-08-23T10:35:36.179Z,16.77
2018-08-23T10:38:07.328Z,18.07
2018-08-23T10:40:37.596Z,17.43
2018-08-23T10:43:07.848Z,16.03
2018-08-23T10:45:38.086Z,15.00
2018-08-23T10:48:13.460Z,17.70
2018-08-23T10:50:44.014Z,17.20
2018-08-23T10:53:14.561Z,18.07
2018-08-23T10:55:45.310Z,15.47
2018-08-23T10:58:15.574Z,14.50
2018-08-23T11:00:45.257Z,16.67
2018-08-23T11:03:14.915Z,15.57
2018-08-23T11:06:08.662Z,15.80
2018-08-23T11:14:40.617Z,13.60
2018-08-23T11:17:15.545Z,10.90
2018-08-23T11:23:05.073Z,10.47
2018-08-23T11:25:35.242Z,9.57
2018-08-23T11:28:09.950Z,8.53
2018-08-23T11:33:45.574Z,7.33
2018-08-23T11:36:33.768Z,7.53
2018-08-23T11:47:07.688Z,8.53
2018-08-23T11:49:37.407Z,8.07
2018-08-23T11:52:13.285Z,7.90
2018-08-23T11:54:42.898Z,8.83
2018-08-23T11:57:33.470Z,10.23
2018-08-23T12:00:03.241Z,6.93
2018-08-23T12:02:42.384Z,7.57
2018-08-23T12:05:13.813Z,7.00
2018-08-23T12:08:02.887Z,6.23
2018-08-23T12:24:21.052Z,6.00
2018-08-23T12:26:50.817Z,5.90
2018-08-23T12:29:20.484Z,6.80
2018-08-23T12:31:50.263Z,5.60
2018-08-23T12:34:34.648Z,5.17
2018-08-23T12:37:09.810Z,5.00
2018-08-23T12:39:44.539Z,5.20
2018-08-23T12:42:19.281Z,6.00
2018-08-23T12:45:03.420Z,6.17
2018-08-23T12:47:33.054Z,6.33
2018-08-23T12:50:06.361Z,6.50
2018-08-23T12:52:35.943Z,5.97
2018-08-23T12:55:05.643Z,5.80
2018-08-23T12:57:35.322Z,4.60
2018-08-23T13:00:07.831Z,4.50
2018-08-23T13:02:40.951Z,4.30
2018-08-23T13:05:10.948Z,4.10
2018-08-23T13:07:40.521Z,3.90
2018-08-23T13:10:10.234Z,4.63
2018-08-23T13:12:47.030Z,3.87
2018-08-23T13:15:16.876Z,4.37
2018-08-23T13:17:46.510Z,4.80
2018-08-23T13:20:16.154Z,4.67
2018-08-23T13:22:45.822Z,5.17
2018-08-23T13:25:16.065Z,4.60
2018-08-23T13:27:45.754Z,5.50
2018-08-23T13:30:19.794Z,4.90
2018-08-23T13:32:49.540Z,5.00
2018-08-23T13:35:19.216Z,5.00
2018-08-23T13:37:59.123Z,4.63
2018-08-23T13:40:29.326Z,5.10
2018-08-23T13:42:59.774Z,5.50
2018-08-23T13:45:31.182Z,6.30
2018-08-23T13:48:02.702Z,5.30
2018-08-23T13:50:32.425Z,5.47
2018-08-23T13:53:02.066Z,6.43
2018-08-23T13:55:34.013Z,5.10
2018-08-23T13:58:05.390Z,5.37
2018-08-23T14:00:41.146Z,5.77
2018-08-23T14:03:23.005Z,4.93
2018-08-23T14:05:52.650Z,5.33
2018-08-23T14:08:22.256Z,4.13
2018-08-23T14:10:56.025Z,5.80
2018-08-23T14:13:36.069Z,6.10
2018-08-23T14:16:17.303Z,5.10
2018-08-23T14:18:48.977Z,5.40
2018-08-23T14:21:20.911Z,4.90
2018-08-23T14:23:50.841Z,5.30
2018-08-23T14:26:20.524Z,4.53
2018-08-23T14:28:50.178Z,4.60
2018-08-23T14:31:21.306Z,5.07
2018-08-23T14:33:50.918Z,5.43
2018-08-23T14:36:34.773Z,6.07
2018-08-23T14:39:11.923Z,7.40
2018-08-23T14:41:41.663Z,6.13
2018-08-23T14:44:11.408Z,6.13
2018-08-23T14:46:46.060Z,7.27
2018-08-23T14:49:38.341Z,6.47
2018-08-23T14:52:19.383Z,5.73
2018-08-23T14:54:49.266Z,6.30
2018-08-23T15:00:14.623Z,6.47
2018-08-23T15:02:44.294Z,6.33
2018-08-23T15:05:13.922Z,6.20
2018-08-23T15:08:00.160Z,7.13
2018-08-23T15:10:36.861Z,7.13
2018-08-23T15:13:06.735Z,7.07
2018-08-23T15:15:41.364Z,7.00
2018-08-23T15:18:30.295Z,7.63
2018-08-23T15:21:01.529Z,8.00
2018-08-23T15:23:32.202Z,8.10
2018-08-23T15:26:29.178Z,7.50
2018-08-23T15:29:01.994Z,7.00
2018-08-23T15:31:32.073Z,6.73
2018-08-23T15:34:12.952Z,8.63
2018-08-23T15:36:42.777Z,7.73
2018-08-23T15:39:14.402Z,6.90
2018-08-23T15:41:44.119Z,6.27
2018-08-23T15:44:14.679Z,6.20
2018-08-23T15:47:43.728Z,6.80
2018-08-23T15:50:13.461Z,6.87
2018-08-23T15:52:43.083Z,7.30
2018-08-23T15:55:12.911Z,8.33
2018-08-23T15:57:42.379Z,8.73
2018-08-23T16:00:12.055Z,7.83
2018-08-23T16:02:41.669Z,8.03
2018-08-23T16:05:11.334Z,7.67
2018-08-23T16:07:40.974Z,8.97
2018-08-23T16:10:17.441Z,7.90
2018-08-23T16:12:50.627Z,8.40
2018-08-23T16:15:21.869Z,8.10
2018-08-23T16:17:57.985Z,8.13
2018-08-23T16:20:35.627Z,8.60
2018-08-23T16:23:05.336Z,8.30
2018-08-23T16:25:40.194Z,9.20
2018-08-23T16:28:10.110Z,10.40
2018-08-23T16:30:46.321Z,9.87
2018-08-23T16:33:15.950Z,10.47
2018-08-23T16:35:46.494Z,10.77
2018-08-23T16:38:16.123Z,9.57
2018-08-23T16:41:17.722Z,9.90
2018-08-23T16:43:47.367Z,11.20
2018-08-23T16:46:17.163Z,9.20
2018-08-23T16:48:46.898Z,10.47
2018-08-23T16:51:16.487Z,9.20
2018-08-23T16:53:46.149Z,8.90
2018-08-23T16:56:15.834Z,10.50
2018-08-23T16:58:45.474Z,10.60
2018-08-23T17:01:15.110Z,10.30
2018-08-23T17:03:48.756Z,10.13
2018-08-23T17:06:18.562Z,9.63
2018-08-23T17:08:59.160Z,9.33
2018-08-23T17:11:28.990Z,9.10
2018-08-23T17:13:58.819Z,7.57
2018-08-23T17:16:33.728Z,7.37
2018-08-23T17:19:06.766Z,8.07
2018-08-23T17:21:36.490Z,7.60
2018-08-23T17:24:06.122Z,7.10
2018-08-23T17:26:35.753Z,7.70
2018-08-23T17:29:05.579Z,7.43
2018-08-23T17:31:35.333Z,7.53
2018-08-23T17:34:04.977Z,6.97
2018-08-23T17:36:36.135Z,6.83
2018-08-23T17:39:09.792Z,7.80
2018-08-23T17:41:39.478Z,8.27
2018-08-23T17:44:09.186Z,7.03
2018-08-23T17:46:38.861Z,7.27
2018-08-23T17:49:09.499Z,7.20
2018-08-23T17:51:44.827Z,7.30
2018-08-23T17:54:14.503Z,8.00
2018-08-23T17:56:44.175Z,7.90
2018-08-23T17:59:13.798Z,8.30
2018-08-23T18:01:43.419Z,8.10
2018-08-23T18:04:13.101Z,8.87
2018-08-23T18:06:42.884Z,10.27
2018-08-23T18:09:23.995Z,10.10
2018-08-23T18:11:53.688Z,10.50
2018-08-23T18:14:23.290Z,12.10
2018-08-23T18:16:58.911Z,10.53
2018-08-23T18:19:28.874Z,10.40
2018-08-23T18:21:58.973Z,9.77
2018-08-23T18:24:28.581Z,10.63
2018-08-23T18:26:58.225Z,10.77
2018-08-23T18:29:27.837Z,10.47
2018-08-23T18:31:57.505Z,9.90
2018-08-23T18:34:27.108Z,8.93
2018-08-23T18:36:56.737Z,8.60
2018-08-23T18:39:26.345Z,10.70
2018-08-23T18:41:55.962Z,9.60
2018-08-23T18:44:25.593Z,9.47
2018-08-23T18:46:56.471Z,10.57
2018-08-23T18:49:27.051Z,10.07
2018-08-23T18:51:56.738Z,9.30
2018-08-23T18:54:26.479Z,10.13
2018-08-23T18:57:02.675Z,8.70
2018-08-23T18:59:33.423Z,9.40
2018-08-23T19:02:04.574Z,9.50
2018-08-23T19:04:34.345Z,9.57
2018-08-23T19:07:04.069Z,8.37
2018-08-23T19:09:38.043Z,9.40
2018-08-23T19:12:07.900Z,8.50
2018-08-23T19:14:37.529Z,8.43
2018-08-23T19:17:12.481Z,9.10
2018-08-23T19:19:45.042Z,8.80
2018-08-23T19:22:14.841Z,9.90
2018-08-23T19:24:44.931Z,8.23
2018-08-23T19:27:19.274Z,8.43
2018-08-23T19:29:49.294Z,8.67
2018-08-23T19:32:26.854Z,8.83
2018-08-23T19:34:56.442Z,8.07
2018-08-23T19:37:26.080Z,9.30
2018-08-23T19:39:55.710Z,7.73
2018-08-23T19:42:25.612Z,8.00
2018-08-23T19:44:58.121Z,7.23
2018-08-23T19:47:32.916Z,7.60
2018-08-23T19:50:03.770Z,7.93
2018-08-23T19:52:33.422Z,7.87
2018-08-23T19:55:03.038Z,7.80
2018-08-23T19:57:45.881Z,8.20
2018-08-23T20:00:44.269Z,8.17
2018-08-23T20:03:14.264Z,7.90
2018-08-23T20:05:43.902Z,8.83
2018-08-23T20:08:16.022Z,7.67
2018-08-23T20:10:45.679Z,7.87
2018-08-23T20:13:15.345Z,8.50
2018-08-23T20:15:44.978Z,7.47
2018-08-23T20:18:14.679Z,8.07
2018-08-23T20:20:44.389Z,7.40
2018-08-23T20:23:14.038Z,7.93
2018-08-23T20:25:43.717Z,6.80
2018-08-23T20:28:17.734Z,6.93
2018-08-23T20:30:47.395Z,7.37
2018-08-23T20:33:17.566Z,6.47
2018-08-23T20:35:47.843Z,6.50
2018-08-23T20:38:17.493Z,7.17
2018-08-23T20:40:47.194Z,6.93
2018-08-23T20:43:23.452Z,6.73
2018-08-23T20:49:02.858Z,6.50
2018-08-23T20:51:32.445Z,6.20
2018-08-23T20:54:02.096Z,6.87
2018-08-23T20:56:43.363Z,6.00
2018-08-23T20:59:13.073Z,7.33
2018-08-23T21:01:42.663Z,6.60
2018-08-23T21:04:12.362Z,5.93
2018-08-23T21:06:41.935Z,6.23
2018-08-23T21:09:13.226Z,6.63
2018-08-23T21:11:42.826Z,7.07
2018-08-23T21:14:12.490Z,7.00
2018-08-23T21:16:42.147Z,6.60
2018-08-23T21:19:14.335Z,7.00
2018-08-23T21:21:44.038Z,6.50
2018-08-23T21:24:13.677Z,6.50
2018-08-23T21:26:49.329Z,6.30
2018-08-23T21:29:19.090Z,6.00
2018-08-23T21:31:48.769Z,6.53
2018-08-23T21:34:18.400Z,6.47
2018-08-23T21:36:48.075Z,5.53
2018-08-23T21:39:17.673Z,6.13
2018-08-23T21:41:47.320Z,5.37
2018-08-23T21:44:16.954Z,5.80
2018-08-23T21:46:49.780Z,5.60
2018-08-23T21:49:19.485Z,5.50
2018-08-23T21:51:49.111Z,6.13
2018-08-23T21:54:18.754Z,5.53
2018-08-23T21:56:49.835Z,5.83
2018-08-23T21:59:19.620Z,6.10
2018-08-23T22:01:51.313Z,5.67
2018-08-23T22:04:20.929Z,5.40
2018-08-23T22:06:50.527Z,5.70
2018-08-23T22:09:23.149Z,4.93
2018-08-23T22:11:52.831Z,4.13
2018-08-23T22:14:22.458Z,5.20
2018-08-23T22:16:52.139Z,4.67
2018-08-23T22:22:00.006Z,4.73
2018-08-23T22:24:29.669Z,4.50
2018-08-23T22:26:59.322Z,4.23
2018-08-23T22:29:38.043Z,4.10
2018-08-23T22:32:09.900Z,3.73
2018-08-23T22:34:39.649Z,4.00
2018-08-23T22:37:09.272Z,3.80
2018-08-23T22:39:38.975Z,3.67
2018-08-23T22:42:08.677Z,4.00
2018-08-23T22:44:38.395Z,3.50
2018-08-23T22:47:08.031Z,4.00
2018-08-23T22:49:37.653Z,3.00
2018-08-23T22:52:07.283Z,3.97
2018-08-23T22:54:37.069Z,3.60
2018-08-23T22:57:08.009Z,3.27
2018-08-23T22:59:38.289Z,3.27
2018-08-23T23:02:08.058Z,3.70
2018-08-23T23:04:37.674Z,3.30
2018-08-23T23:09:46.642Z,2.93
2018-08-23T23:12:16.237Z,3.23
2018-08-23T23:14:50.007Z,3.10
2018-08-23T23:17:19.687Z,3.20
2018-08-23T23:19:56.367Z,2.80
2018-08-23T23:22:26.269Z,3.03
2018-08-23T23:25:05.886Z,2.57
2018-08-23T23:27:36.534Z,2.87
2018-08-23T23:30:07.028Z,2.43
2018-08-23T23:32:36.784Z,3.30
2018-08-23T23:35:07.014Z,2.93
2018-08-23T23:44:09.803Z,2.20
2018-08-23T23:46:39.967Z,2.47
2018-08-23T23:49:22.411Z,2.70
2018-08-23T23:52:16.338Z,2.23
2018-08-23T23:54:50.228Z,2.70
2018-08-23T23:57:45.848Z,2.43
